• Join FlightAware (Why Join?)
  • Login
  • US Flag 
01:28PM EDT


 

Airport Tracker/Info


-or-


 

Live Flight TrackerFlight Track Log ✈ PDT4226 ✈ 02-Feb-2014 ✈ KPHL - KBGM

Flight Track Log - Related Links

Times and Time Zones

All times are in EST time to prevent confusion due to time zone crossing. See the PDT4226 flight status page for this flight to view local times or setup timezone preferences in your user account.

Time Position Orientation Groundspeed Altitude Reporting Facility
EST Latitude Longitude Course Direction KTS MPH feet Rate Location/Type
11:49AM 39.9000 -75.2333 311° West 118 136 700  Level Philadelphia TRACON
11:50AM 39.9000 -75.2667 270° West 125 144 2,000 1,500 Climbing Philadelphia TRACON
11:51AM 39.9167 -75.3167 294° West 128 147 3,400 1,380 Climbing Philadelphia TRACON
11:52AM 40.0477 -75.3978 323° Northwest  Level FlightAware Approximate
11:52AM 39.9333 -75.3500 303° West 128 147 4,700  Level Philadelphia TRACON
11:53AM 40.1085 -75.4503 303° West  Level FlightAware Approximate
11:53AM 39.9500 -75.4000 294° West 124 143 6,400  Level Philadelphia TRACON
11:54AM 40.1676 -75.5014 311° West  Level FlightAware Approximate
11:54AM 39.9653 -75.4294 304° West 120 138 7,500  Level New York Center
11:55AM 39.9867 -75.4661 307° West 120 138 8,700 1,260 Climbing New York Center
11:56AM 40.0278 -75.4797 346° North 137 158 10,100 1,200 Climbing New York Center
11:57AM 40.0711 -75.4961 344° North 150 173 11,200 900 Climbing New York Center
11:58AM 40.1142 -75.5125 344° North 162 186 12,000 360 Climbing New York Center
11:59AM 40.1672 -75.5406 338° Northwest 180 207 12,000 -60 Level New York Center
12:00PM 40.2328 -75.5642 345° North 231 266 11,900 -60 Descending New York Center
12:01PM 40.2661 -75.6183 309° West 219 252 11,900 900 Level New York Center
12:02PM 40.2994 -75.6669 312° West 200 230 13,800 960 Climbing New York Center
12:03PM 40.3350 -75.7183 312° West 172 198 13,900  Climbing New York Center
12:04PM 40.3617 -75.7747 302° West 178 205 13,900  Level New York Center
12:05PM 40.3989 -75.8292 312° West 189 217 13,900  Level New York Center
12:06PM 40.4361 -75.8839 312° West 208 239 13,900  Level New York Center
12:07PM 40.4772 -75.9497 309° West 215 247 13,900  Level New York Center
12:08PM 40.5142 -76.0069 310° West 210 242 13,900  Level New York Center
12:09PM 40.5511 -76.0700 308° West 210 242 13,900  Level New York Center
12:10PM 40.5861 -76.1217 312° West 215 247 13,900  Level New York Center
12:11PM 40.6272 -76.1797 313° West 215 247 13,900  Level New York Center
12:12PM 40.6639 -76.2428 307° West 210 242 13,900  Level New York Center
12:13PM 40.7194 -76.2581 348° North 202 232 13,900  Level New York Center
12:14PM 40.7931 -76.2450 North 232 267 13,900  Level New York Center
12:15PM 40.8536 -76.2414 North 247 284 13,900  Level New York Center
12:16PM 40.9269 -76.2336 North 252 290 13,900  Level New York Center
12:17PM 41.0022 -76.2286 North 257 296 13,900  Level New York Center
12:18PM 41.0669 -76.2256 North 255 293 14,000  Climbing New York Center
12:19PM 41.1383 -76.2150 North 255 293 14,000  Level New York Center
12:20PM 41.2158 -76.2072 North 255 293 14,000 -480 Level New York Center
12:21PM 41.2886 -76.2050 North 255 293 13,100 -900 Descending New York Center
12:22PM 41.3686 -76.1892 North 269 310 12,200 -960 Descending New York Center
12:23PM 41.4397 -76.1811 North 280 322 11,200 -1,020 Descending New York Center
12:24PM 41.5125 -76.1842 358° North 270 311 10,200 -1,080 Descending New York Center
12:25PM 41.5956 -76.1936 355° North 265 305 9,100 -600 Descending New York Center
12:26PM 41.6667 -76.1856 North 265 305 9,000 -60 Descending New York Center
12:27PM 41.7317 -76.1769 North 249 287 9,000 -600 Level New York Center
12:28PM 41.7919 -76.1764 360° North 237 273 7,900 -1,320 Descending New York Center
12:29PM 41.8594 -76.1594 11° North 242 278 6,400 -1,560 Descending New York Center
12:30PM 41.9136 -76.0664 52° Northeast 258 297 4,800 -1,200 Descending New York Center
12:31PM 41.9625 -75.9978 46° Northeast 266 306 4,000 -420 Descending New York Center
12:32PM 42.0111 -75.9292 46° Northeast 261 300 4,000  Level New York Center
12:33PM 42.0531 -75.8764 43° Northeast 234 269 4,000 -60 Level New York Center
12:34PM 42.1042 -75.8944 345° North 184 212 3,900 -540 Descending New York Center
12:35PM 42.1425 -75.9281 327° Northwest 161 185 3,000 -900 Descending New York Center
12:36PM 42.1725 -75.9528 329° Northwest 149 171 2,200 -480 Descending New York Center
12:37PM 42.2150 -75.9786 336° Northwest 142 163 2,100 -120 Descending New York Center